sensor_id;sensor_type;location;lat;lon;timestamp;temperature;humidity
20171;DHT22;10245;51.344;6.620;2024-03-02T00:00:18;8.30;73.90
20171;DHT22;10245;51.344;6.620;2024-03-02T00:02:44;8.20;74.00
20171;DHT22;10245;51.344;6.620;2024-03-02T00:05:11;8.20;73.70
20171;DHT22;10245;51.344;6.620;2024-03-02T00:07:35;8.30;73.70
20171;DHT22;10245;51.344;6.620;2024-03-02T00:09:59;8.20;73.90
20171;DHT22;10245;51.344;6.620;2024-03-02T00:12:22;8.30;73.90
20171;DHT22;10245;51.344;6.620;2024-03-02T00:14:46;8.40;73.90
20171;DHT22;10245;51.344;6.620;2024-03-02T00:17:17;8.40;73.40
20171;DHT22;10245;51.344;6.620;2024-03-02T00:19:45;8.50;73.40
20171;DHT22;10245;51.344;6.620;2024-03-02T00:22:10;8.50;72.80
20171;DHT22;10245;51.344;6.620;2024-03-02T00:24:34;8.60;72.70
20171;DHT22;10245;51.344;6.620;2024-03-02T00:26:58;8.70;72.60
20171;DHT22;10245;51.344;6.620;2024-03-02T00:29:21;8.80;72.20
20171;DHT22;10245;51.344;6.620;2024-03-02T00:31:44;8.80;72.20
20171;DHT22;10245;51.344;6.620;2024-03-02T00:34:07;8.80;72.40
20171;DHT22;10245;51.344;6.620;2024-03-02T00:36:34;8.80;72.20
20171;DHT22;10245;51.344;6.620;2024-03-02T00:38:57;8.80;72.40
20171;DHT22;10245;51.344;6.620;2024-03-02T00:41:22;8.90;72.30
20171;DHT22;10245;51.344;6.620;2024-03-02T00:43:58;8.90;72.20
20171;DHT22;10245;51.344;6.620;2024-03-02T00:46:22;8.90;72.10
20171;DHT22;10245;51.344;6.620;2024-03-02T00:48:51;8.90;72.00
20171;DHT22;10245;51.344;6.620;2024-03-02T00:51:17;9.00;72.20
20171;DHT22;10245;51.344;6.620;2024-03-02T00:53:42;9.00;71.90
20171;DHT22;10245;51.344;6.620;2024-03-02T00:56:09;9.00;72.10
20171;DHT22;10245;51.344;6.620;2024-03-02T00:58:34;9.00;72.20
20171;DHT22;10245;51.344;6.620;2024-03-02T01:00:58;9.00;71.60
20171;DHT22;10245;51.344;6.620;2024-03-02T01:03:22;9.00;71.90
20171;DHT22;10245;51.344;6.620;2024-03-02T01:05:46;9.00;72.10
20171;DHT22;10245;51.344;6.620;2024-03-02T01:08:09;9.00;71.30
20171;DHT22;10245;51.344;6.620;2024-03-02T01:10:34;9.00;71.60
20171;DHT22;10245;51.344;6.620;2024-03-02T01:12:58;8.90;71.70
20171;DHT22;10245;51.344;6.620;2024-03-02T01:15:22;8.90;72.10
20171;DHT22;10245;51.344;6.620;2024-03-02T01:17:45;8.90;71.80
20171;DHT22;10245;51.344;6.620;2024-03-02T01:20:09;8.90;71.80
20171;DHT22;10245;51.344;6.620;2024-03-02T01:22:34;8.80;71.90
20171;DHT22;10245;51.344;6.620;2024-03-02T01:24:58;8.80;72.00
20171;DHT22;10245;51.344;6.620;2024-03-02T01:27:22;8.80;72.30
20171;DHT22;10245;51.344;6.620;2024-03-02T01:29:46;8.80;72.50
20171;DHT22;10245;51.344;6.620;2024-03-02T01:32:10;8.80;72.10
20171;DHT22;10245;51.344;6.620;2024-03-02T01:34:33;8.70;72.10
20171;DHT22;10245;51.344;6.620;2024-03-02T01:36:57;8.80;72.50
20171;DHT22;10245;51.344;6.620;2024-03-02T01:39:20;8.70;72.50
20171;DHT22;10245;51.344;6.620;2024-03-02T01:41:43;8.70;72.50
20171;DHT22;10245;51.344;6.620;2024-03-02T01:44:08;8.70;72.50
20171;DHT22;10245;51.344;6.620;2024-03-02T01:46:31;8.80;72.60
20171;DHT22;10245;51.344;6.620;2024-03-02T01:48:55;8.70;72.80
20171;DHT22;10245;51.344;6.620;2024-03-02T01:51:18;8.80;72.60
20171;DHT22;10245;51.344;6.620;2024-03-02T01:53:41;8.90;72.60
20171;DHT22;10245;51.344;6.620;2024-03-02T01:56:05;8.90;72.60
20171;DHT22;10245;51.344;6.620;2024-03-02T01:58:29;9.00;72.20
20171;DHT22;10245;51.344;6.620;2024-03-02T02:00:53;9.00;72.20
20171;DHT22;10245;51.344;6.620;2024-03-02T02:03:17;9.00;71.70
20171;DHT22;10245;51.344;6.620;2024-03-02T02:05:42;9.00;71.90
20171;DHT22;10245;51.344;6.620;2024-03-02T02:08:05;9.10;71.60
20171;DHT22;10245;51.344;6.620;2024-03-02T02:10:29;9.00;71.80
20171;DHT22;10245;51.344;6.620;2024-03-02T02:12:53;9.10;71.90
20171;DHT22;10245;51.344;6.620;2024-03-02T02:15:24;9.10;71.10
20171;DHT22;10245;51.344;6.620;2024-03-02T02:17:49;9.10;71.60
20171;DHT22;10245;51.344;6.620;2024-03-02T02:20:13;9.10;71.60
20171;DHT22;10245;51.344;6.620;2024-03-02T02:22:38;9.10;71.80
20171;DHT22;10245;51.344;6.620;2024-03-02T02:25:01;9.10;71.20
20171;DHT22;10245;51.344;6.620;2024-03-02T02:27:25;9.10;71.60
20171;DHT22;10245;51.344;6.620;2024-03-02T02:29:48;9.10;71.20
20171;DHT22;10245;51.344;6.620;2024-03-02T02:32:11;9.20;71.40
20171;DHT22;10245;51.344;6.620;2024-03-02T02:34:35;9.10;71.60
20171;DHT22;10245;51.344;6.620;2024-03-02T02:36:58;9.10;71.00
20171;DHT22;10245;51.344;6.620;2024-03-02T02:39:23;9.10;71.00
20171;DHT22;10245;51.344;6.620;2024-03-02T02:41:46;9.00;71.40
20171;DHT22;10245;51.344;6.620;2024-03-02T02:44:09;9.00;71.50
20171;DHT22;10245;51.344;6.620;2024-03-02T02:46:34;9.00;71.90
20171;DHT22;10245;51.344;6.620;2024-03-02T02:48:58;9.00;71.80
20171;DHT22;10245;51.344;6.620;2024-03-02T02:51:21;8.90;72.10
20171;DHT22;10245;51.344;6.620;2024-03-02T02:53:45;8.90;72.90
20171;DHT22;10245;51.344;6.620;2024-03-02T02:56:10;8.90;72.40
20171;DHT22;10245;51.344;6.620;2024-03-02T02:58:34;8.80;72.70
20171;DHT22;10245;51.344;6.620;2024-03-02T03:00:57;8.70;72.90
20171;DHT22;10245;51.344;6.620;2024-03-02T03:03:20;8.60;73.50
20171;DHT22;10245;51.344;6.620;2024-03-02T03:05:43;8.60;73.70
20171;DHT22;10245;51.344;6.620;2024-03-02T03:08:07;8.60;73.60
20171;DHT22;10245;51.344;6.620;2024-03-02T03:10:31;8.70;73.70
20171;DHT22;10245;51.344;6.620;2024-03-02T03:12:56;8.60;74.00
20171;DHT22;10245;51.344;6.620;2024-03-02T03:15:20;8.60;74.20
20171;DHT22;10245;51.344;6.620;2024-03-02T03:17:44;8.50;74.00
20171;DHT22;10245;51.344;6.620;2024-03-02T03:20:09;8.50;74.20
20171;DHT22;10245;51.344;6.620;2024-03-02T03:22:33;8.40;74.80
20171;DHT22;10245;51.344;6.620;2024-03-02T03:24:57;8.50;74.90
20171;DHT22;10245;51.344;6.620;2024-03-02T03:27:21;8.50;74.90
20171;DHT22;10245;51.344;6.620;2024-03-02T03:29:46;8.50;75.00
20171;DHT22;10245;51.344;6.620;2024-03-02T03:32:09;8.30;75.00
20171;DHT22;10245;51.344;6.620;2024-03-02T03:34:32;8.40;75.60
20171;DHT22;10245;51.344;6.620;2024-03-02T03:36:57;8.40;75.50
20171;DHT22;10245;51.344;6.620;2024-03-02T03:39:20;8.50;75.90
20171;DHT22;10245;51.344;6.620;2024-03-02T03:41:43;8.50;75.70
20171;DHT22;10245;51.344;6.620;2024-03-02T03:44:07;8.50;75.50
20171;DHT22;10245;51.344;6.620;2024-03-02T03:46:31;8.50;75.60
20171;DHT22;10245;51.344;6.620;2024-03-02T03:48:54;8.60;76.00
20171;DHT22;10245;51.344;6.620;2024-03-02T03:51:18;8.70;75.60
20171;DHT22;10245;51.344;6.620;2024-03-02T03:53:41;8.60;75.70
20171;DHT22;10245;51.344;6.620;2024-03-02T03:56:05;8.50;76.20
20171;DHT22;10245;51.344;6.620;2024-03-02T03:58:29;8.40;76.50
20171;DHT22;10245;51.344;6.620;2024-03-02T04:00:52;8.20;76.70
20171;DHT22;10245;51.344;6.620;2024-03-02T04:03:17;8.20;77.60
20171;DHT22;10245;51.344;6.620;2024-03-02T04:05:41;8.20;78.10
20171;DHT22;10245;51.344;6.620;2024-03-02T04:08:05;8.30;77.90
20171;DHT22;10245;51.344;6.620;2024-03-02T04:10:28;8.20;78.00
20171;DHT22;10245;51.344;6.620;2024-03-02T04:12:52;8.20;78.30
20171;DHT22;10245;51.344;6.620;2024-03-02T04:15:15;8.30;78.50
20171;DHT22;10245;51.344;6.620;2024-03-02T04:17:40;8.10;78.40
20171;DHT22;10245;51.344;6.620;2024-03-02T04:20:06;8.20;79.00
20171;DHT22;10245;51.344;6.620;2024-03-02T04:22:30;8.10;78.60
20171;DHT22;10245;51.344;6.620;2024-03-02T04:24:55;8.00;78.80
20171;DHT22;10245;51.344;6.620;2024-03-02T04:27:19;8.00;78.80
20171;DHT22;10245;51.344;6.620;2024-03-02T04:29:43;8.00;78.50
20171;DHT22;10245;51.344;6.620;2024-03-02T04:32:06;8.10;78.70
20171;DHT22;10245;51.344;6.620;2024-03-02T04:34:30;8.10;78.50
20171;DHT22;10245;51.344;6.620;2024-03-02T04:36:55;8.20;78.40
20171;DHT22;10245;51.344;6.620;2024-03-02T04:39:19;8.20;78.10
20171;DHT22;10245;51.344;6.620;2024-03-02T04:41:42;8.00;78.10
20171;DHT22;10245;51.344;6.620;2024-03-02T04:44:05;8.00;78.50
20171;DHT22;10245;51.344;6.620;2024-03-02T04:46:29;8.10;78.20
20171;DHT22;10245;51.344;6.620;2024-03-02T04:48:54;7.90;79.20
20171;DHT22;10245;51.344;6.620;2024-03-02T04:51:19;7.90;79.30
20171;DHT22;10245;51.344;6.620;2024-03-02T04:53:44;7.70;79.80
20171;DHT22;10245;51.344;6.620;2024-03-02T04:56:07;7.70;79.90
20171;DHT22;10245;51.344;6.620;2024-03-02T04:59:01;7.60;80.00
20171;DHT22;10245;51.344;6.620;2024-03-02T05:01:24;7.50;80.10
20171;DHT22;10245;51.344;6.620;2024-03-02T05:04:03;7.40;80.20
20171;DHT22;10245;51.344;6.620;2024-03-02T05:06:26;7.10;81.30
20171;DHT22;10245;51.344;6.620;2024-03-02T05:08:50;7.00;81.50
20171;DHT22;10245;51.344;6.620;2024-03-02T05:11:15;7.00;82.00
20171;DHT22;10245;51.344;6.620;2024-03-02T05:13:56;7.00;82.10
20171;DHT22;10245;51.344;6.620;2024-03-02T05:16:20;7.00;82.20
20171;DHT22;10245;51.344;6.620;2024-03-02T05:18:44;6.90;82.40
20171;DHT22;10245;51.344;6.620;2024-03-02T05:21:07;6.90;82.50
20171;DHT22;10245;51.344;6.620;2024-03-02T05:23:31;6.90;82.30
20171;DHT22;10245;51.344;6.620;2024-03-02T05:25:55;6.90;82.50
20171;DHT22;10245;51.344;6.620;2024-03-02T05:28:19;7.00;82.80
20171;DHT22;10245;51.344;6.620;2024-03-02T05:30:42;7.00;82.70
20171;DHT22;10245;51.344;6.620;2024-03-02T05:33:06;6.90;82.80
20171;DHT22;10245;51.344;6.620;2024-03-02T05:35:30;6.90;83.30
20171;DHT22;10245;51.344;6.620;2024-03-02T05:37:54;7.00;82.90
20171;DHT22;10245;51.344;6.620;2024-03-02T05:40:17;7.00;82.90
20171;DHT22;10245;51.344;6.620;2024-03-02T05:42:46;7.00;82.50
20171;DHT22;10245;51.344;6.620;2024-03-02T05:45:09;7.10;82.10
20171;DHT22;10245;51.344;6.620;2024-03-02T05:47:33;7.20;81.90
20171;DHT22;10245;51.344;6.620;2024-03-02T05:49:56;7.20;81.50
20171;DHT22;10245;51.344;6.620;2024-03-02T05:52:19;7.20;81.40
20171;DHT22;10245;51.344;6.620;2024-03-02T05:54:43;7.30;80.90
20171;DHT22;10245;51.344;6.620;2024-03-02T05:57:06;7.30;80.70
20171;DHT22;10245;51.344;6.620;2024-03-02T05:59:50;7.30;80.60
20171;DHT22;10245;51.344;6.620;2024-03-02T06:02:14;7.20;80.60
20171;DHT22;10245;51.344;6.620;2024-03-02T06:04:37;7.30;80.80
20171;DHT22;10245;51.344;6.620;2024-03-02T06:07:02;7.20;80.60
20171;DHT22;10245;51.344;6.620;2024-03-02T06:09:25;7.20;80.60
20171;DHT22;10245;51.344;6.620;2024-03-02T06:11:48;7.20;80.30
20171;DHT22;10245;51.344;6.620;2024-03-02T06:14:12;7.20;80.50
20171;DHT22;10245;51.344;6.620;2024-03-02T06:16:37;7.20;80.60
20171;DHT22;10245;51.344;6.620;2024-03-02T06:19:00;7.20;80.30
20171;DHT22;10245;51.344;6.620;2024-03-02T06:21:24;7.20;80.50
20171;DHT22;10245;51.344;6.620;2024-03-02T06:23:48;7.30;80.40
20171;DHT22;10245;51.344;6.620;2024-03-02T06:26:12;7.40;80.20
20171;DHT22;10245;51.344;6.620;2024-03-02T06:28:35;7.30;80.10
20171;DHT22;10245;51.344;6.620;2024-03-02T06:30:59;7.40;79.90
20171;DHT22;10245;51.344;6.620;2024-03-02T06:33:24;7.30;79.80
20171;DHT22;10245;51.344;6.620;2024-03-02T06:35:48;7.20;79.80
20171;DHT22;10245;51.344;6.620;2024-03-02T06:38:12;7.30;80.40
20171;DHT22;10245;51.344;6.620;2024-03-02T06:40:36;7.50;79.70
20171;DHT22;10245;51.344;6.620;2024-03-02T06:43:01;7.50;79.90
20171;DHT22;10245;51.344;6.620;2024-03-02T06:45:24;7.40;79.70
20171;DHT22;10245;51.344;6.620;2024-03-02T06:47:48;7.50;79.50
20171;DHT22;10245;51.344;6.620;2024-03-02T06:50:13;7.60;79.60
20171;DHT22;10245;51.344;6.620;2024-03-02T06:52:36;7.60;79.60
20171;DHT22;10245;51.344;6.620;2024-03-02T06:55:00;7.60;79.40
20171;DHT22;10245;51.344;6.620;2024-03-02T06:57:24;7.70;79.40
20171;DHT22;10245;51.344;6.620;2024-03-02T06:59:47;7.70;79.30
20171;DHT22;10245;51.344;6.620;2024-03-02T07:02:12;7.70;79.40
20171;DHT22;10245;51.344;6.620;2024-03-02T07:04:35;7.80;79.40
20171;DHT22;10245;51.344;6.620;2024-03-02T07:07:00;7.80;79.10
20171;DHT22;10245;51.344;6.620;2024-03-02T07:09:24;7.80;79.30
20171;DHT22;10245;51.344;6.620;2024-03-02T07:11:47;8.00;79.00
20171;DHT22;10245;51.344;6.620;2024-03-02T07:14:13;7.90;78.50
20171;DHT22;10245;51.344;6.620;2024-03-02T07:16:37;7.90;78.70
20171;DHT22;10245;51.344;6.620;2024-03-02T07:19:02;8.00;78.90
20171;DHT22;10245;51.344;6.620;2024-03-02T07:21:25;8.00;78.40
20171;DHT22;10245;51.344;6.620;2024-03-02T07:23:51;8.00;78.80
20171;DHT22;10245;51.344;6.620;2024-03-02T07:26:14;8.10;78.80
20171;DHT22;10245;51.344;6.620;2024-03-02T07:28:43;8.20;78.50
20171;DHT22;10245;51.344;6.620;2024-03-02T07:31:07;8.20;78.00
20171;DHT22;10245;51.344;6.620;2024-03-02T07:33:32;8.20;77.70
20171;DHT22;10245;51.344;6.620;2024-03-02T07:35:55;8.30;77.70
20171;DHT22;10245;51.344;6.620;2024-03-02T07:38:20;8.20;77.40
20171;DHT22;10245;51.344;6.620;2024-03-02T07:40:45;8.30;77.60
20171;DHT22;10245;51.344;6.620;2024-03-02T07:43:08;8.20;76.90
20171;DHT22;10245;51.344;6.620;2024-03-02T07:45:33;8.30;77.30
20171;DHT22;10245;51.344;6.620;2024-03-02T07:47:57;8.40;77.40
20171;DHT22;10245;51.344;6.620;2024-03-02T07:50:21;8.30;77.10
20171;DHT22;10245;51.344;6.620;2024-03-02T07:52:44;8.30;76.50
20171;DHT22;10245;51.344;6.620;2024-03-02T07:55:08;8.40;77.40
20171;DHT22;10245;51.344;6.620;2024-03-02T07:57:33;8.40;77.10
20171;DHT22;10245;51.344;6.620;2024-03-02T07:59:56;8.40;76.80
20171;DHT22;10245;51.344;6.620;2024-03-02T08:02:21;8.40;76.70
20171;DHT22;10245;51.344;6.620;2024-03-02T08:04:45;8.40;76.20
20171;DHT22;10245;51.344;6.620;2024-03-02T08:07:08;8.60;76.90
20171;DHT22;10245;51.344;6.620;2024-03-02T08:09:32;8.50;76.00
20171;DHT22;10245;51.344;6.620;2024-03-02T08:11:55;8.60;76.80
20171;DHT22;10245;51.344;6.620;2024-03-02T08:14:21;8.50;76.80
20171;DHT22;10245;51.344;6.620;2024-03-02T08:16:44;8.40;76.10
20171;DHT22;10245;51.344;6.620;2024-03-02T08:19:08;8.50;77.20
20171;DHT22;10245;51.344;6.620;2024-03-02T08:21:31;8.50;76.20
20171;DHT22;10245;51.344;6.620;2024-03-02T08:23:57;8.50;76.30
20171;DHT22;10245;51.344;6.620;2024-03-02T08:26:20;8.60;76.70
20171;DHT22;10245;51.344;6.620;2024-03-02T08:28:44;8.70;77.20
20171;DHT22;10245;51.344;6.620;2024-03-02T08:31:09;8.90;76.70
20171;DHT22;10245;51.344;6.620;2024-03-02T08:33:32;8.90;76.20
20171;DHT22;10245;51.344;6.620;2024-03-02T08:35:58;8.80;76.40
20171;DHT22;10245;51.344;6.620;2024-03-02T08:38:22;8.90;76.60
20171;DHT22;10245;51.344;6.620;2024-03-02T08:40:45;8.90;75.40
20171;DHT22;10245;51.344;6.620;2024-03-02T08:43:10;9.20;76.10
20171;DHT22;10245;51.344;6.620;2024-03-02T08:45:34;9.20;75.10
20171;DHT22;10245;51.344;6.620;2024-03-02T08:47:59;9.40;75.30
20171;DHT22;10245;51.344;6.620;2024-03-02T08:50:22;9.50;73.30
20171;DHT22;10245;51.344;6.620;2024-03-02T08:52:45;9.50;74.00
20171;DHT22;10245;51.344;6.620;2024-03-02T08:55:09;9.80;74.40
20171;DHT22;10245;51.344;6.620;2024-03-02T08:57:33;9.90;73.60
20171;DHT22;10245;51.344;6.620;2024-03-02T08:59:56;9.80;73.10
20171;DHT22;10245;51.344;6.620;2024-03-02T09:02:20;9.90;73.00
20171;DHT22;10245;51.344;6.620;2024-03-02T09:04:44;9.90;73.00
20171;DHT22;10245;51.344;6.620;2024-03-02T09:07:08;10.10;73.70
20171;DHT22;10245;51.344;6.620;2024-03-02T09:09:31;10.30;73.10
20171;DHT22;10245;51.344;6.620;2024-03-02T09:11:54;10.60;72.20
20171;DHT22;10245;51.344;6.620;2024-03-02T09:14:19;10.50;71.80
20171;DHT22;10245;51.344;6.620;2024-03-02T09:16:43;10.10;72.40
20171;DHT22;10245;51.344;6.620;2024-03-02T09:19:06;10.20;73.00
20171;DHT22;10245;51.344;6.620;2024-03-02T09:21:32;10.00;72.60
20171;DHT22;10245;51.344;6.620;2024-03-02T09:23:56;10.10;72.70
20171;DHT22;10245;51.344;6.620;2024-03-02T09:26:19;10.20;73.00
20171;DHT22;10245;51.344;6.620;2024-03-02T09:28:44;10.30;72.20
20171;DHT22;10245;51.344;6.620;2024-03-02T09:31:07;10.60;72.80
20171;DHT22;10245;51.344;6.620;2024-03-02T09:33:31;10.80;71.70
20171;DHT22;10245;51.344;6.620;2024-03-02T09:35:54;10.80;70.80
20171;DHT22;10245;51.344;6.620;2024-03-02T09:38:19;10.80;71.80
20171;DHT22;10245;51.344;6.620;2024-03-02T09:40:42;10.90;69.60
20171;DHT22;10245;51.344;6.620;2024-03-02T09:43:06;10.90;70.60
20171;DHT22;10245;51.344;6.620;2024-03-02T09:45:30;11.00;68.90
20171;DHT22;10245;51.344;6.620;2024-03-02T09:47:55;10.80;68.90
20171;DHT22;10245;51.344;6.620;2024-03-02T09:50:18;11.00;70.10
20171;DHT22;10245;51.344;6.620;2024-03-02T09:52:42;11.10;68.70
20171;DHT22;10245;51.344;6.620;2024-03-02T09:55:08;11.20;67.70
20171;DHT22;10245;51.344;6.620;2024-03-02T09:57:32;11.30;69.20
20171;DHT22;10245;51.344;6.620;2024-03-02T09:59:55;11.40;67.50
20171;DHT22;10245;51.344;6.620;2024-03-02T10:02:18;11.20;68.50
20171;DHT22;10245;51.344;6.620;2024-03-02T10:04:41;11.10;66.90
20171;DHT22;10245;51.344;6.620;2024-03-02T10:07:14;11.10;66.40
20171;DHT22;10245;51.344;6.620;2024-03-02T10:09:38;11.30;66.70
20171;DHT22;10245;51.344;6.620;2024-03-02T10:12:06;11.40;67.10
20171;DHT22;10245;51.344;6.620;2024-03-02T10:14:30;11.50;65.80
20171;DHT22;10245;51.344;6.620;2024-03-02T10:17:01;11.30;65.70
20171;DHT22;10245;51.344;6.620;2024-03-02T10:19:25;11.40;66.90
20171;DHT22;10245;51.344;6.620;2024-03-02T10:21:49;11.80;66.20
20171;DHT22;10245;51.344;6.620;2024-03-02T10:24:14;11.70;63.90
20171;DHT22;10245;51.344;6.620;2024-03-02T10:26:37;11.90;65.90
20171;DHT22;10245;51.344;6.620;2024-03-02T10:29:01;11.90;64.40
20171;DHT22;10245;51.344;6.620;2024-03-02T10:31:25;11.90;64.40
20171;DHT22;10245;51.344;6.620;2024-03-02T10:33:49;11.90;63.60
20171;DHT22;10245;51.344;6.620;2024-03-02T10:36:13;12.00;63.00
20171;DHT22;10245;51.344;6.620;2024-03-02T10:38:36;12.10;62.50
20171;DHT22;10245;51.344;6.620;2024-03-02T10:41:03;12.00;61.40
20171;DHT22;10245;51.344;6.620;2024-03-02T10:43:26;12.00;61.90
20171;DHT22;10245;51.344;6.620;2024-03-02T10:45:52;12.30;63.70
20171;DHT22;10245;51.344;6.620;2024-03-02T10:48:16;12.40;63.00
20171;DHT22;10245;51.344;6.620;2024-03-02T10:50:42;12.40;63.60
20171;DHT22;10245;51.344;6.620;2024-03-02T10:53:05;12.50;62.10
20171;DHT22;10245;51.344;6.620;2024-03-02T10:55:28;12.70;63.40
20171;DHT22;10245;51.344;6.620;2024-03-02T10:57:53;12.70;63.50
20171;DHT22;10245;51.344;6.620;2024-03-02T11:00:19;12.80;63.50
20171;DHT22;10245;51.344;6.620;2024-03-02T11:02:52;12.90;64.60
20171;DHT22;10245;51.344;6.620;2024-03-02T11:05:26;12.90;63.10
20171;DHT22;10245;51.344;6.620;2024-03-02T11:07:51;12.50;61.60
20171;DHT22;10245;51.344;6.620;2024-03-02T11:10:16;12.60;64.40
20171;DHT22;10245;51.344;6.620;2024-03-02T11:12:46;12.80;64.20
20171;DHT22;10245;51.344;6.620;2024-03-02T11:15:17;13.00;64.20
20171;DHT22;10245;51.344;6.620;2024-03-02T11:17:41;13.00;62.70
20171;DHT22;10245;51.344;6.620;2024-03-02T11:20:08;13.00;62.80
20171;DHT22;10245;51.344;6.620;2024-03-02T11:22:32;12.50;62.20
20171;DHT22;10245;51.344;6.620;2024-03-02T11:24:58;12.40;61.80
20171;DHT22;10245;51.344;6.620;2024-03-02T11:30:48;13.00;60.50
20171;DHT22;10245;51.344;6.620;2024-03-02T11:33:12;13.30;61.80
20171;DHT22;10245;51.344;6.620;2024-03-02T11:35:41;13.00;61.30
20171;DHT22;10245;51.344;6.620;2024-03-02T11:38:06;13.30;62.80
20171;DHT22;10245;51.344;6.620;2024-03-02T11:40:39;13.30;59.90
20171;DHT22;10245;51.344;6.620;2024-03-02T11:43:05;13.30;60.40
20171;DHT22;10245;51.344;6.620;2024-03-02T11:45:29;13.70;60.10
20171;DHT22;10245;51.344;6.620;2024-03-02T11:47:57;13.60;58.70
20171;DHT22;10245;51.344;6.620;2024-03-02T11:50:29;13.70;62.60
20171;DHT22;10245;51.344;6.620;2024-03-02T11:52:53;13.60;60.00
20171;DHT22;10245;51.344;6.620;2024-03-02T11:55:18;13.50;60.70
20171;DHT22;10245;51.344;6.620;2024-03-02T11:57:42;13.80;58.90
20171;DHT22;10245;51.344;6.620;2024-03-02T12:00:17;13.80;58.70
20171;DHT22;10245;51.344;6.620;2024-03-02T12:02:41;13.70;59.70
20171;DHT22;10245;51.344;6.620;2024-03-02T12:05:09;13.90;56.90
20171;DHT22;10245;51.344;6.620;2024-03-02T12:07:32;13.70;57.40
20171;DHT22;10245;51.344;6.620;2024-03-02T12:10:01;13.50;56.60
20171;DHT22;10245;51.344;6.620;2024-03-02T12:12:25;13.70;57.80
20171;DHT22;10245;51.344;6.620;2024-03-02T12:14:53;13.70;57.20
20171;DHT22;10245;51.344;6.620;2024-03-02T12:17:18;13.80;57.00
20171;DHT22;10245;51.344;6.620;2024-03-02T12:19:41;13.80;57.50
20171;DHT22;10245;51.344;6.620;2024-03-02T12:22:05;13.60;58.50
20171;DHT22;10245;51.344;6.620;2024-03-02T12:24:29;13.80;59.50
20171;DHT22;10245;51.344;6.620;2024-03-02T12:26:54;13.90;57.30
20171;DHT22;10245;51.344;6.620;2024-03-02T12:29:19;13.50;57.10
20171;DHT22;10245;51.344;6.620;2024-03-02T12:31:43;13.60;57.50
20171;DHT22;10245;51.344;6.620;2024-03-02T12:34:07;13.60;58.10
20171;DHT22;10245;51.344;6.620;2024-03-02T12:36:37;13.70;57.50
20171;DHT22;10245;51.344;6.620;2024-03-02T12:39:01;13.50;57.30
20171;DHT22;10245;51.344;6.620;2024-03-02T12:41:24;13.80;57.80
20171;DHT22;10245;51.344;6.620;2024-03-02T12:43:50;13.80;57.20
20171;DHT22;10245;51.344;6.620;2024-03-02T12:46:14;13.80;56.90
20171;DHT22;10245;51.344;6.620;2024-03-02T12:48:38;13.80;57.40
20171;DHT22;10245;51.344;6.620;2024-03-02T12:51:04;13.80;57.50
20171;DHT22;10245;51.344;6.620;2024-03-02T12:53:27;13.60;57.50
20171;DHT22;10245;51.344;6.620;2024-03-02T12:55:51;13.60;57.00
20171;DHT22;10245;51.344;6.620;2024-03-02T12:58:18;13.70;57.40
20171;DHT22;10245;51.344;6.620;2024-03-02T13:00:43;13.60;57.00
20171;DHT22;10245;51.344;6.620;2024-03-02T13:03:06;13.80;58.90
20171;DHT22;10245;51.344;6.620;2024-03-02T13:05:30;14.00;57.90
20171;DHT22;10245;51.344;6.620;2024-03-02T13:07:54;14.10;57.10
20171;DHT22;10245;51.344;6.620;2024-03-02T13:10:18;14.20;57.20
20171;DHT22;10245;51.344;6.620;2024-03-02T13:12:41;14.10;58.60
20171;DHT22;10245;51.344;6.620;2024-03-02T13:15:05;14.20;58.60
20171;DHT22;10245;51.344;6.620;2024-03-02T13:17:30;14.10;57.90
20171;DHT22;10245;51.344;6.620;2024-03-02T13:20:00;13.80;57.80
20171;DHT22;10245;51.344;6.620;2024-03-02T13:22:26;13.90;59.30
20171;DHT22;10245;51.344;6.620;2024-03-02T13:24:49;14.10;58.90
20171;DHT22;10245;51.344;6.620;2024-03-02T13:27:13;14.10;58.90
20171;DHT22;10245;51.344;6.620;2024-03-02T13:29:37;14.20;58.30
20171;DHT22;10245;51.344;6.620;2024-03-02T13:32:01;14.00;59.50
20171;DHT22;10245;51.344;6.620;2024-03-02T13:34:26;14.00;58.00
20171;DHT22;10245;51.344;6.620;2024-03-02T13:36:49;13.80;58.60
20171;DHT22;10245;51.344;6.620;2024-03-02T13:39:13;13.80;57.90
20171;DHT22;10245;51.344;6.620;2024-03-02T13:41:37;13.70;58.40
20171;DHT22;10245;51.344;6.620;2024-03-02T13:44:01;14.00;59.80
20171;DHT22;10245;51.344;6.620;2024-03-02T13:46:24;14.00;59.80
20171;DHT22;10245;51.344;6.620;2024-03-02T13:48:47;13.80;60.40
20171;DHT22;10245;51.344;6.620;2024-03-02T13:51:12;13.90;60.60
20171;DHT22;10245;51.344;6.620;2024-03-02T13:53:35;13.90;60.20
20171;DHT22;10245;51.344;6.620;2024-03-02T13:55:58;13.70;59.50
20171;DHT22;10245;51.344;6.620;2024-03-02T13:58:22;13.80;60.30
20171;DHT22;10245;51.344;6.620;2024-03-02T14:00:45;13.70;60.10
20171;DHT22;10245;51.344;6.620;2024-03-02T14:03:09;13.80;60.00
20171;DHT22;10245;51.344;6.620;2024-03-02T14:05:33;14.00;60.70
20171;DHT22;10245;51.344;6.620;2024-03-02T14:07:57;13.80;59.30
20171;DHT22;10245;51.344;6.620;2024-03-02T14:10:22;13.90;59.60
20171;DHT22;10245;51.344;6.620;2024-03-02T14:12:46;14.00;59.00
20171;DHT22;10245;51.344;6.620;2024-03-02T14:15:09;13.90;58.20
20171;DHT22;10245;51.344;6.620;2024-03-02T14:17:33;14.10;58.60
20171;DHT22;10245;51.344;6.620;2024-03-02T14:19:57;14.10;58.40
20171;DHT22;10245;51.344;6.620;2024-03-02T14:22:21;14.30;60.00
20171;DHT22;10245;51.344;6.620;2024-03-02T14:24:45;14.10;59.40
20171;DHT22;10245;51.344;6.620;2024-03-02T14:27:09;14.10;59.70
20171;DHT22;10245;51.344;6.620;2024-03-02T14:29:49;14.10;59.80
20171;DHT22;10245;51.344;6.620;2024-03-02T14:32:12;14.00;59.00
20171;DHT22;10245;51.344;6.620;2024-03-02T14:34:36;13.90;59.60
20171;DHT22;10245;51.344;6.620;2024-03-02T14:37:01;14.00;59.10
20171;DHT22;10245;51.344;6.620;2024-03-02T14:39:25;14.20;59.50
20171;DHT22;10245;51.344;6.620;2024-03-02T14:41:50;14.50;59.00
20171;DHT22;10245;51.344;6.620;2024-03-02T14:44:14;14.50;58.50
20171;DHT22;10245;51.344;6.620;2024-03-02T14:46:38;14.50;59.70
20171;DHT22;10245;51.344;6.620;2024-03-02T14:49:04;14.30;58.60
20171;DHT22;10245;51.344;6.620;2024-03-02T14:51:27;14.30;58.50
20171;DHT22;10245;51.344;6.620;2024-03-02T14:53:52;14.40;59.60
20171;DHT22;10245;51.344;6.620;2024-03-02T14:56:15;14.40;59.60
20171;DHT22;10245;51.344;6.620;2024-03-02T14:58:41;14.50;59.30
20171;DHT22;10245;51.344;6.620;2024-03-02T15:01:07;14.30;58.10
20171;DHT22;10245;51.344;6.620;2024-03-02T15:03:31;14.30;58.10
20171;DHT22;10245;51.344;6.620;2024-03-02T15:05:55;14.40;58.60
20171;DHT22;10245;51.344;6.620;2024-03-02T15:08:18;14.30;58.60
20171;DHT22;10245;51.344;6.620;2024-03-02T15:10:42;14.10;58.40
20171;DHT22;10245;51.344;6.620;2024-03-02T15:13:06;14.10;59.10
20171;DHT22;10245;51.344;6.620;2024-03-02T15:15:31;14.10;59.80
20171;DHT22;10245;51.344;6.620;2024-03-02T15:17:55;14.30;59.80
20171;DHT22;10245;51.344;6.620;2024-03-02T15:20:19;14.20;58.70
20171;DHT22;10245;51.344;6.620;2024-03-02T15:22:43;14.50;59.80
20171;DHT22;10245;51.344;6.620;2024-03-02T15:25:07;14.50;59.10